sensor_id;sensor_type;location;lat;lon;timestamp;pressure;altitude;pressure_sealevel;temperature
11926;BMP180;6022;48.768;18.608;2023-10-19T00:02:09;97840.66;;;6.26
11926;BMP180;6022;48.768;18.608;2023-10-19T00:04:44;97834.31;;;6.35
11926;BMP180;6022;48.768;18.608;2023-10-19T00:07:12;97829.78;;;6.26
11926;BMP180;6022;48.768;18.608;2023-10-19T00:09:44;97834.53;;;6.16
11926;BMP180;6022;48.768;18.608;2023-10-19T00:12:16;97829.28;;;6.19
11926;BMP180;6022;48.768;18.608;2023-10-19T00:14:44;97818.91;;;6.25
11926;BMP180;6022;48.768;18.608;2023-10-19T00:17:13;97809.63;;;6.26
11926;BMP180;6022;48.768;18.608;2023-10-19T00:19:43;97815.66;;;6.23
11926;BMP180;6022;48.768;18.608;2023-10-19T00:22:25;97806.19;;;6.42
11926;BMP180;6022;48.768;18.608;2023-10-19T00:24:54;97802.09;;;6.39
11926;BMP180;6022;48.768;18.608;2023-10-19T00:27:27;97789.06;;;6.47
11926;BMP180;6022;48.768;18.608;2023-10-19T00:29:58;97788.91;;;6.50
11926;BMP180;6022;48.768;18.608;2023-10-19T00:32:34;97796.41;;;6.51
11926;BMP180;6022;48.768;18.608;2023-10-19T00:35:06;97790.88;;;6.45
11926;BMP180;6022;48.768;18.608;2023-10-19T00:37:56;97775.31;;;6.52
11926;BMP180;6022;48.768;18.608;2023-10-19T00:40:39;97767.88;;;6.65
11926;BMP180;6022;48.768;18.608;2023-10-19T00:43:12;97764.19;;;6.70
11926;BMP180;6022;48.768;18.608;2023-10-19T00:45:46;97760.22;;;6.66
11926;BMP180;6022;48.768;18.608;2023-10-19T00:48:17;97747.16;;;6.74
11926;BMP180;6022;48.768;18.608;2023-10-19T00:50:45;97741.13;;;6.90
11926;BMP180;6022;48.768;18.608;2023-10-19T00:53:16;97737.78;;;7.03
11926;BMP180;6022;48.768;18.608;2023-10-19T00:55:45;97729.59;;;7.14
11926;BMP180;6022;48.768;18.608;2023-10-19T00:58:15;97729.31;;;7.18
11926;BMP180;6022;48.768;18.608;2023-10-19T01:00:46;97738.13;;;7.25
11926;BMP180;6022;48.768;18.608;2023-10-19T01:03:18;97730.19;;;7.31
11926;BMP180;6022;48.768;18.608;2023-10-19T01:05:46;97725.66;;;7.36
11926;BMP180;6022;48.768;18.608;2023-10-19T01:08:17;97728.06;;;7.63
11926;BMP180;6022;48.768;18.608;2023-10-19T01:10:53;97713.28;;;7.71
11926;BMP180;6022;48.768;18.608;2023-10-19T01:13:21;97707.25;;;8.12
11926;BMP180;6022;48.768;18.608;2023-10-19T01:15:54;97699.16;;;8.32
11926;BMP180;6022;48.768;18.608;2023-10-19T01:18:24;97698.25;;;8.45
11926;BMP180;6022;48.768;18.608;2023-10-19T01:20:57;97700.09;;;8.56
11926;BMP180;6022;48.768;18.608;2023-10-19T01:23:29;97693.50;;;8.53
11926;BMP180;6022;48.768;18.608;2023-10-19T01:25:59;97694.59;;;8.49
11926;BMP180;6022;48.768;18.608;2023-10-19T01:28:35;97690.66;;;8.45
11926;BMP180;6022;48.768;18.608;2023-10-19T01:31:21;97689.25;;;8.41
11926;BMP180;6022;48.768;18.608;2023-10-19T01:34:00;97674.91;;;8.29
11926;BMP180;6022;48.768;18.608;2023-10-19T01:36:37;97686.84;;;8.28
11926;BMP180;6022;48.768;18.608;2023-10-19T01:39:10;97676.94;;;8.25
11926;BMP180;6022;48.768;18.608;2023-10-19T01:41:38;97680.06;;;8.28
11926;BMP180;6022;48.768;18.608;2023-10-19T01:44:09;97673.69;;;8.23
11926;BMP180;6022;48.768;18.608;2023-10-19T01:46:42;97665.81;;;8.15
11926;BMP180;6022;48.768;18.608;2023-10-19T01:49:16;97660.88;;;8.13
11926;BMP180;6022;48.768;18.608;2023-10-19T01:51:56;97651.56;;;8.14
11926;BMP180;6022;48.768;18.608;2023-10-19T01:54:25;97650.44;;;8.18
11926;BMP180;6022;48.768;18.608;2023-10-19T01:56:55;97646.63;;;8.25
11926;BMP180;6022;48.768;18.608;2023-10-19T01:59:27;97646.44;;;8.28
11926;BMP180;6022;48.768;18.608;2023-10-19T02:01:55;97644.72;;;8.40
11926;BMP180;6022;48.768;18.608;2023-10-19T02:04:26;97642.66;;;8.58
11926;BMP180;6022;48.768;18.608;2023-10-19T02:06:54;97638.06;;;8.63
11926;BMP180;6022;48.768;18.608;2023-10-19T02:09:22;97638.25;;;8.72
11926;BMP180;6022;48.768;18.608;2023-10-19T02:11:57;97630.19;;;8.67
11926;BMP180;6022;48.768;18.608;2023-10-19T02:14:27;97634.31;;;8.68
11926;BMP180;6022;48.768;18.608;2023-10-19T02:17:00;97631.09;;;8.66
11926;BMP180;6022;48.768;18.608;2023-10-19T02:19:30;97629.59;;;8.64
11926;BMP180;6022;48.768;18.608;2023-10-19T02:22:01;97618.28;;;8.57
11926;BMP180;6022;48.768;18.608;2023-10-19T02:24:36;97620.72;;;8.58
11926;BMP180;6022;48.768;18.608;2023-10-19T02:27:04;97618.97;;;8.59
11926;BMP180;6022;48.768;18.608;2023-10-19T02:29:35;97610.16;;;8.64
11926;BMP180;6022;48.768;18.608;2023-10-19T02:32:04;97609.19;;;8.67
11926;BMP180;6022;48.768;18.608;2023-10-19T02:34:32;97605.53;;;8.70
11926;BMP180;6022;48.768;18.608;2023-10-19T02:37:02;97609.34;;;8.76
11926;BMP180;6022;48.768;18.608;2023-10-19T02:39:30;97599.44;;;8.73
11926;BMP180;6022;48.768;18.608;2023-10-19T02:41:59;97601.25;;;8.71
11926;BMP180;6022;48.768;18.608;2023-10-19T02:44:28;97597.81;;;8.72
11926;BMP180;6022;48.768;18.608;2023-10-19T02:46:59;97599.63;;;8.70
11926;BMP180;6022;48.768;18.608;2023-10-19T02:49:28;97595.22;;;8.61
11926;BMP180;6022;48.768;18.608;2023-10-19T02:51:58;97593.09;;;8.55
11926;BMP180;6022;48.768;18.608;2023-10-19T02:54:32;97605.75;;;8.55
11926;BMP180;6022;48.768;18.608;2023-10-19T02:57:01;97592.41;;;8.53
11926;BMP180;6022;48.768;18.608;2023-10-19T02:59:29;97586.53;;;8.53
11926;BMP180;6022;48.768;18.608;2023-10-19T03:02:00;97577.84;;;8.57
11926;BMP180;6022;48.768;18.608;2023-10-19T03:04:34;97570.34;;;8.55
11926;BMP180;6022;48.768;18.608;2023-10-19T03:07:07;97569.13;;;8.61
11926;BMP180;6022;48.768;18.608;2023-10-19T03:09:35;97551.34;;;8.62
11926;BMP180;6022;48.768;18.608;2023-10-19T03:12:05;97554.56;;;8.64
11926;BMP180;6022;48.768;18.608;2023-10-19T03:14:38;97547.22;;;8.61
11926;BMP180;6022;48.768;18.608;2023-10-19T03:17:05;97545.84;;;8.68
11926;BMP180;6022;48.768;18.608;2023-10-19T03:19:37;97539.91;;;8.69
11926;BMP180;6022;48.768;18.608;2023-10-19T03:22:05;97537.38;;;8.69
11926;BMP180;6022;48.768;18.608;2023-10-19T03:24:33;97550.91;;;8.68
11926;BMP180;6022;48.768;18.608;2023-10-19T03:27:10;97535.53;;;8.71
11926;BMP180;6022;48.768;18.608;2023-10-19T03:29:47;97534.75;;;8.70
11926;BMP180;6022;48.768;18.608;2023-10-19T03:32:25;97529.69;;;8.70
11926;BMP180;6022;48.768;18.608;2023-10-19T03:35:03;97521.97;;;8.72
11926;BMP180;6022;48.768;18.608;2023-10-19T03:37:32;97518.91;;;8.79
11926;BMP180;6022;48.768;18.608;2023-10-19T03:40:04;97522.25;;;8.80
11926;BMP180;6022;48.768;18.608;2023-10-19T03:42:35;97514.53;;;8.81
11926;BMP180;6022;48.768;18.608;2023-10-19T03:45:09;97508.47;;;8.84
11926;BMP180;6022;48.768;18.608;2023-10-19T03:47:41;97514.94;;;8.88
11926;BMP180;6022;48.768;18.608;2023-10-19T03:50:11;97508.94;;;8.89
11926;BMP180;6022;48.768;18.608;2023-10-19T03:52:48;97496.78;;;8.94
11926;BMP180;6022;48.768;18.608;2023-10-19T03:55:17;97511.16;;;8.93
11926;BMP180;6022;48.768;18.608;2023-10-19T03:57:50;97506.22;;;8.92
11926;BMP180;6022;48.768;18.608;2023-10-19T04:00:22;97497.69;;;8.93
11926;BMP180;6022;48.768;18.608;2023-10-19T04:02:54;97493.47;;;8.93
11926;BMP180;6022;48.768;18.608;2023-10-19T04:05:23;97489.56;;;9.00
11926;BMP180;6022;48.768;18.608;2023-10-19T04:07:53;97484.03;;;8.95
11926;BMP180;6022;48.768;18.608;2023-10-19T04:10:35;97482.66;;;8.91
11926;BMP180;6022;48.768;18.608;2023-10-19T04:13:03;97477.59;;;8.91
11926;BMP180;6022;48.768;18.608;2023-10-19T04:15:31;97478.41;;;8.92
11926;BMP180;6022;48.768;18.608;2023-10-19T04:18:03;97467.47;;;8.91
11926;BMP180;6022;48.768;18.608;2023-10-19T04:20:38;97466.44;;;8.94
11926;BMP180;6022;48.768;18.608;2023-10-19T04:23:10;97458.84;;;8.94
11926;BMP180;6022;48.768;18.608;2023-10-19T04:25:41;97446.22;;;8.94
11926;BMP180;6022;48.768;18.608;2023-10-19T04:28:08;97444.38;;;8.96
11926;BMP180;6022;48.768;18.608;2023-10-19T04:30:36;97444.97;;;8.99
11926;BMP180;6022;48.768;18.608;2023-10-19T04:33:05;97442.34;;;9.01
11926;BMP180;6022;48.768;18.608;2023-10-19T04:35:39;97436.13;;;9.04
11926;BMP180;6022;48.768;18.608;2023-10-19T04:38:09;97436.59;;;9.09
11926;BMP180;6022;48.768;18.608;2023-10-19T04:40:38;97434.31;;;9.06
11926;BMP180;6022;48.768;18.608;2023-10-19T04:43:06;97427.50;;;9.07
11926;BMP180;6022;48.768;18.608;2023-10-19T04:45:39;97427.41;;;9.08
11926;BMP180;6022;48.768;18.608;2023-10-19T04:48:10;97430.03;;;9.07
11926;BMP180;6022;48.768;18.608;2023-10-19T04:50:38;97426.72;;;9.06
11926;BMP180;6022;48.768;18.608;2023-10-19T04:53:07;97424.19;;;9.06
11926;BMP180;6022;48.768;18.608;2023-10-19T04:55:35;97421.41;;;9.09
11926;BMP180;6022;48.768;18.608;2023-10-19T04:58:04;97425.56;;;9.10
11926;BMP180;6022;48.768;18.608;2023-10-19T05:00:33;97422.00;;;9.13
11926;BMP180;6022;48.768;18.608;2023-10-19T05:03:01;97412.72;;;9.13
11926;BMP180;6022;48.768;18.608;2023-10-19T05:05:29;97415.34;;;9.12
11926;BMP180;6022;48.768;18.608;2023-10-19T05:07:57;97420.50;;;9.10
11926;BMP180;6022;48.768;18.608;2023-10-19T05:10:27;97413.72;;;9.11
11926;BMP180;6022;48.768;18.608;2023-10-19T05:12:57;97415.44;;;9.10
11926;BMP180;6022;48.768;18.608;2023-10-19T05:15:26;97422.13;;;9.11
11926;BMP180;6022;48.768;18.608;2023-10-19T05:17:55;97412.81;;;9.12
11926;BMP180;6022;48.768;18.608;2023-10-19T05:20:23;97412.72;;;9.13
11926;BMP180;6022;48.768;18.608;2023-10-19T05:22:51;97411.66;;;9.16
11926;BMP180;6022;48.768;18.608;2023-10-19T05:25:19;97413.50;;;9.14
11926;BMP180;6022;48.768;18.608;2023-10-19T05:27:46;97409.94;;;9.16
11926;BMP180;6022;48.768;18.608;2023-10-19T05:30:14;97409.13;;;9.16
11926;BMP180;6022;48.768;18.608;2023-10-19T05:32:42;97409.94;;;9.16
11926;BMP180;6022;48.768;18.608;2023-10-19T05:35:14;97403.03;;;9.18
11926;BMP180;6022;48.768;18.608;2023-10-19T05:37:49;97408.91;;;9.19
11926;BMP180;6022;48.768;18.608;2023-10-19T05:40:19;97407.19;;;9.19
11926;BMP180;6022;48.768;18.608;2023-10-19T05:42:47;97410.41;;;9.21
11926;BMP180;6022;48.768;18.608;2023-10-19T05:45:15;97406.94;;;9.22
11926;BMP180;6022;48.768;18.608;2023-10-19T05:47:44;97394.31;;;9.22
11926;BMP180;6022;48.768;18.608;2023-10-19T05:50:12;97398.47;;;9.23
11926;BMP180;6022;48.768;18.608;2023-10-19T05:52:43;97397.66;;;9.23
11926;BMP180;6022;48.768;18.608;2023-10-19T05:55:10;97394.09;;;9.25
11926;BMP180;6022;48.768;18.608;2023-10-19T05:57:39;97397.31;;;9.27
11926;BMP180;6022;48.768;18.608;2023-10-19T06:00:11;97391.31;;;9.28
11926;BMP180;6022;48.768;18.608;2023-10-19T06:02:44;97395.47;;;9.29
11926;BMP180;6022;48.768;18.608;2023-10-19T06:05:14;97391.09;;;9.31
11926;BMP180;6022;48.768;18.608;2023-10-19T06:07:45;97393.63;;;9.31
11926;BMP180;6022;48.768;18.608;2023-10-19T06:10:21;97394.31;;;9.33
11926;BMP180;6022;48.768;18.608;2023-10-19T06:12:51;97389.25;;;9.33
11926;BMP180;6022;48.768;18.608;2023-10-19T06:15:22;97383.28;;;9.34
11926;BMP180;6022;48.768;18.608;2023-10-19T06:17:55;97374.66;;;9.37
11926;BMP180;6022;48.768;18.608;2023-10-19T06:20:23;97372.91;;;9.37
11926;BMP180;6022;48.768;18.608;2023-10-19T06:22:57;97383.72;;;9.39
11926;BMP180;6022;48.768;18.608;2023-10-19T06:25:33;97381.88;;;9.41
11926;BMP180;6022;48.768;18.608;2023-10-19T06:28:05;97389.47;;;9.41
11926;BMP180;6022;48.768;18.608;2023-10-19T06:30:33;97396.84;;;9.44
11926;BMP180;6022;48.768;18.608;2023-10-19T06:33:01;97400.97;;;9.45
11926;BMP180;6022;48.768;18.608;2023-10-19T06:35:32;97401.66;;;9.47
11926;BMP180;6022;48.768;18.608;2023-10-19T06:38:00;97393.84;;;9.50
11926;BMP180;6022;48.768;18.608;2023-10-19T06:40:28;97387.06;;;9.50
11926;BMP180;6022;48.768;18.608;2023-10-19T06:42:57;97380.75;;;9.56
11926;BMP180;6022;48.768;18.608;2023-10-19T06:45:26;97393.28;;;9.57
11926;BMP180;6022;48.768;18.608;2023-10-19T06:47:54;97383.84;;;9.59
11926;BMP180;6022;48.768;18.608;2023-10-19T06:50:23;97385.59;;;9.59
11926;BMP180;6022;48.768;18.608;2023-10-19T06:52:52;97380.41;;;9.60
11926;BMP180;6022;48.768;18.608;2023-10-19T06:55:22;97377.06;;;9.60
11926;BMP180;6022;48.768;18.608;2023-10-19T06:57:54;97372.00;;;9.60
11926;BMP180;6022;48.768;18.608;2023-10-19T07:00:24;97369.47;;;9.60
11926;BMP180;6022;48.768;18.608;2023-10-19T07:02:57;97378.00;;;9.59
11926;BMP180;6022;48.768;18.608;2023-10-19T07:05:32;97375.47;;;9.59
11926;BMP180;6022;48.768;18.608;2023-10-19T07:08:00;97378.91;;;9.58
11926;BMP180;6022;48.768;18.608;2023-10-19T07:10:33;97377.06;;;9.60
11926;BMP180;6022;48.768;18.608;2023-10-19T07:13:07;97371.78;;;9.63
11926;BMP180;6022;48.768;18.608;2023-10-19T07:15:36;97360.28;;;9.59
11926;BMP180;6022;48.768;18.608;2023-10-19T07:18:05;97347.50;;;9.60
11926;BMP180;6022;48.768;18.608;2023-10-19T07:20:37;97332.84;;;9.64
11926;BMP180;6022;48.768;18.608;2023-10-19T07:23:09;97332.84;;;9.64
11926;BMP180;6022;48.768;18.608;2023-10-19T07:25:52;97329.63;;;9.73
11926;BMP180;6022;48.768;18.608;2023-10-19T07:28:26;97335.84;;;9.79
11926;BMP180;6022;48.768;18.608;2023-10-19T07:34:00;97309.84;;;9.78
11926;BMP180;6022;48.768;18.608;2023-10-19T07:36:32;97306.94;;;9.82
11926;BMP180;6022;48.768;18.608;2023-10-19T07:39:06;97307.72;;;9.82
11926;BMP180;6022;48.768;18.608;2023-10-19T07:41:49;97300.84;;;9.84
11926;BMP180;6022;48.768;18.608;2023-10-19T07:44:19;97293.25;;;9.84
11926;BMP180;6022;48.768;18.608;2023-10-19T07:46:49;97284.81;;;9.84
11926;BMP180;6022;48.768;18.608;2023-10-19T07:49:20;97281.25;;;9.86
11926;BMP180;6022;48.768;18.608;2023-10-19T07:51:53;97280.09;;;9.90
11926;BMP180;6022;48.768;18.608;2023-10-19T07:54:27;97274.00;;;9.93
11926;BMP180;6022;48.768;18.608;2023-10-19T07:56:56;97287.13;;;9.98
11926;BMP180;6022;48.768;18.608;2023-10-19T07:59:30;97288.59;;;10.00
11926;BMP180;6022;48.768;18.608;2023-10-19T08:01:59;97287.44;;;10.04
11926;BMP180;6022;48.768;18.608;2023-10-19T08:04:37;97280.63;;;10.05
11926;BMP180;6022;48.768;18.608;2023-10-19T08:07:06;97287.88;;;10.09
11926;BMP180;6022;48.768;18.608;2023-10-19T08:09:34;97291.34;;;10.08
11926;BMP180;6022;48.768;18.608;2023-10-19T08:12:03;97285.34;;;10.09
11926;BMP180;6022;48.768;18.608;2023-10-19T08:14:32;97285.09;;;10.12
11926;BMP180;6022;48.768;18.608;2023-10-19T08:17:01;97283.50;;;10.11
11926;BMP180;6022;48.768;18.608;2023-10-19T08:19:34;97284.31;;;10.12
11926;BMP180;6022;48.768;18.608;2023-10-19T08:22:03;97282.44;;;10.14
11926;BMP180;6022;48.768;18.608;2023-10-19T08:24:31;97278.63;;;10.19
11926;BMP180;6022;48.768;18.608;2023-10-19T08:27:02;97265.72;;;10.22
11926;BMP180;6022;48.768;18.608;2023-10-19T08:29:32;97260.66;;;10.22
11926;BMP180;6022;48.768;18.608;2023-10-19T08:32:03;97264.66;;;10.24
11926;BMP180;6022;48.768;18.608;2023-10-19T08:34:36;97250.25;;;10.25
11926;BMP180;6022;48.768;18.608;2023-10-19T08:37:05;97257.38;;;10.31
11926;BMP180;6022;48.768;18.608;2023-10-19T08:39:33;97256.34;;;10.33
11926;BMP180;6022;48.768;18.608;2023-10-19T08:42:08;97254.31;;;10.37
11926;BMP180;6022;48.768;18.608;2023-10-19T08:44:38;97259.84;;;10.42
11926;BMP180;6022;48.768;18.608;2023-10-19T08:47:06;97262.38;;;10.42
11926;BMP180;6022;48.768;18.608;2023-10-19T08:49:34;97248.66;;;10.44
11926;BMP180;6022;48.768;18.608;2023-10-19T08:52:04;97261.47;;;10.43
11926;BMP180;6022;48.768;18.608;2023-10-19T08:54:35;97255.56;;;10.42
11926;BMP180;6022;48.768;18.608;2023-10-19T08:57:02;97254.66;;;10.43
11926;BMP180;6022;48.768;18.608;2023-10-19T08:59:31;97259.41;;;10.37
11926;BMP180;6022;48.768;18.608;2023-10-19T09:02:03;97258.50;;;10.38
11926;BMP180;6022;48.768;18.608;2023-10-19T09:04:42;97261.03;;;10.38
11926;BMP180;6022;48.768;18.608;2023-10-19T09:07:11;97255.84;;;10.39
11926;BMP180;6022;48.768;18.608;2023-10-19T09:09:38;97260.22;;;10.37
11926;BMP180;6022;48.768;18.608;2023-10-19T09:12:08;97258.50;;;10.38
11926;BMP180;6022;48.768;18.608;2023-10-19T09:14:43;97255.03;;;10.39
11926;BMP180;6022;48.768;18.608;2023-10-19T09:17:14;97252.13;;;10.43
11926;BMP180;6022;48.768;18.608;2023-10-19T09:19:44;97241.72;;;10.46
11926;BMP180;6022;48.768;18.608;2023-10-19T09:22:15;97241.47;;;10.49
11926;BMP180;6022;48.768;18.608;2023-10-19T09:24:52;97230.03;;;10.55
11926;BMP180;6022;48.768;18.608;2023-10-19T09:27:23;97230.03;;;10.55
11926;BMP180;6022;48.768;18.608;2023-10-19T09:29:52;97233.69;;;10.61
11926;BMP180;6022;48.768;18.608;2023-10-19T09:32:19;97234.78;;;10.68
11926;BMP180;6022;48.768;18.608;2023-10-19T09:34:49;97234.28;;;10.74
11926;BMP180;6022;48.768;18.608;2023-10-19T09:37:20;97234.13;;;10.76
11926;BMP180;6022;48.768;18.608;2023-10-19T09:39:50;97224.56;;;10.79
11926;BMP180;6022;48.768;18.608;2023-10-19T09:42:20;97226.84;;;10.82
11926;BMP180;6022;48.768;18.608;2023-10-19T09:44:59;97223.63;;;10.80
11926;BMP180;6022;48.768;18.608;2023-10-19T09:47:41;97220.16;;;10.81
11926;BMP180;6022;48.768;18.608;2023-10-19T09:50:16;97210.00;;;10.81
11926;BMP180;6022;48.768;18.608;2023-10-19T09:52:50;97218.72;;;10.88
11926;BMP180;6022;48.768;18.608;2023-10-19T09:55:33;97207.50;;;10.91
11926;BMP180;6022;48.768;18.608;2023-10-19T09:58:19;97202.06;;;10.95
11926;BMP180;6022;48.768;18.608;2023-10-19T10:00:49;97188.44;;;10.96
11926;BMP180;6022;48.768;18.608;2023-10-19T10:03:45;97178.03;;;10.99
11926;BMP180;6022;48.768;18.608;2023-10-19T10:06:16;97179.38;;;11.03
11926;BMP180;6022;48.768;18.608;2023-10-19T10:08:48;97174.84;;;11.06
11926;BMP180;6022;48.768;18.608;2023-10-19T10:11:24;97170.56;;;11.07
11926;BMP180;6022;48.768;18.608;2023-10-19T10:13:58;97164.56;;;11.08
11926;BMP180;6022;48.768;18.608;2023-10-19T10:16:28;97160.16;;;11.10
11926;BMP180;6022;48.768;18.608;2023-10-19T10:19:00;97156.94;;;11.08
11926;BMP180;6022;48.768;18.608;2023-10-19T10:21:29;97154.03;;;11.12
11926;BMP180;6022;48.768;18.608;2023-10-19T10:23:59;97151.09;;;11.17
11926;BMP180;6022;48.768;18.608;2023-10-19T10:26:31;97154.31;;;11.19
11926;BMP180;6022;48.768;18.608;2023-10-19T10:29:13;97144.03;;;11.20
11926;BMP180;6022;48.768;18.608;2023-10-19T10:31:51;97139.06;;;11.19
11926;BMP180;6022;48.768;18.608;2023-10-19T10:37:12;97129.22;;;11.25
11926;BMP180;6022;48.768;18.608;2023-10-19T10:39:41;97120.78;;;11.25
11926;BMP180;6022;48.768;18.608;2023-10-19T10:42:12;97111.03;;;11.30
11926;BMP180;6022;48.768;18.608;2023-10-19T10:44:47;97110.78;;;11.32
11926;BMP180;6022;48.768;18.608;2023-10-19T10:47:20;97115.19;;;11.31
11926;BMP180;6022;48.768;18.608;2023-10-19T10:49:57;97107.03;;;11.36
11926;BMP180;6022;48.768;18.608;2023-10-19T10:52:36;97099.81;;;11.41
11926;BMP180;6022;48.768;18.608;2023-10-19T10:55:13;97100.00;;;11.49
11926;BMP180;6022;48.768;18.608;2023-10-19T10:57:44;97096.63;;;11.49
11926;BMP180;6022;48.768;18.608;2023-10-19T11:00:14;97091.28;;;11.42
11926;BMP180;6022;48.768;18.608;2023-10-19T11:02:47;97092.84;;;11.43
11926;BMP180;6022;48.768;18.608;2023-10-19T11:05:27;97091.97;;;11.44
11926;BMP180;6022;48.768;18.608;2023-10-19T11:08:11;97094.91;;;11.49
11926;BMP180;6022;48.768;18.608;2023-10-19T11:10:47;97085.56;;;11.50
11926;BMP180;6022;48.768;18.608;2023-10-19T11:13:23;97086.34;;;11.50
11926;BMP180;6022;48.768;18.608;2023-10-19T11:15:54;97082.88;;;11.51
11926;BMP180;6022;48.768;18.608;2023-10-19T11:18:41;97078.47;;;11.53
11926;BMP180;6022;48.768;18.608;2023-10-19T11:21:13;97086.75;;;11.55
11926;BMP180;6022;48.768;18.608;2023-10-19T11:23:49;97081.28;;;11.50
11926;BMP180;6022;48.768;18.608;2023-10-19T11:26:24;97069.25;;;11.52
11926;BMP180;6022;48.768;18.608;2023-10-19T11:29:02;97071.53;;;11.55
11926;BMP180;6022;48.768;18.608;2023-10-19T11:31:33;97073.66;;;11.60
11926;BMP180;6022;48.768;18.608;2023-10-19T11:34:06;97061.06;;;11.58
11926;BMP180;6022;48.768;18.608;2023-10-19T11:36:36;97058.16;;;11.63
11926;BMP180;6022;48.768;18.608;2023-10-19T11:39:04;97068.19;;;11.64
11926;BMP180;6022;48.768;18.608;2023-10-19T11:41:32;97059.75;;;11.64
11926;BMP180;6022;48.768;18.608;2023-10-19T11:44:00;97057.31;;;11.62
11926;BMP180;6022;48.768;18.608;2023-10-19T11:46:29;97049.59;;;11.54
11926;BMP180;6022;48.768;18.608;2023-10-19T11:48:57;97067.22;;;11.56
11926;BMP180;6022;48.768;18.608;2023-10-19T11:51:25;97063.47;;;11.60
11926;BMP180;6022;48.768;18.608;2023-10-19T11:53:56;97052.53;;;11.59
11926;BMP180;6022;48.768;18.608;2023-10-19T11:56:29;97055.63;;;11.53
11926;BMP180;6022;48.768;18.608;2023-10-19T11:58:56;97060.28;;;11.48
11926;BMP180;6022;48.768;18.608;2023-10-19T12:01:35;97061.25;;;11.47
11926;BMP180;6022;48.768;18.608;2023-10-19T12:04:04;97053.19;;;11.42
11926;BMP180;6022;48.768;18.608;2023-10-19T12:06:32;97057.31;;;11.43
11926;BMP180;6022;48.768;18.608;2023-10-19T12:09:00;97063.78;;;11.47
11926;BMP180;6022;48.768;18.608;2023-10-19T12:11:43;97045.59;;;11.52
11926;BMP180;6022;48.768;18.608;2023-10-19T12:14:15;97044.94;;;11.50
11926;BMP180;6022;48.768;18.608;2023-10-19T12:16:43;97034.66;;;11.51
11926;BMP180;6022;48.768;18.608;2023-10-19T12:19:13;97039.72;;;11.51
11926;BMP180;6022;48.768;18.608;2023-10-19T12:21:41;97039.72;;;11.51
11926;BMP180;6022;48.768;18.608;2023-10-19T12:24:09;97047.84;;;11.55
11926;BMP180;6022;48.768;18.608;2023-10-19T12:26:37;97045.19;;;11.56
11926;BMP180;6022;48.768;18.608;2023-10-19T12:29:06;97034.88;;;11.58
11926;BMP180;6022;48.768;18.608;2023-10-19T12:31:37;97034.75;;;11.59
11926;BMP180;6022;48.768;18.608;2023-10-19T12:34:07;97029.00;;;11.57
11926;BMP180;6022;48.768;18.608;2023-10-19T12:36:35;97027.53;;;11.55
11926;BMP180;6022;48.768;18.608;2023-10-19T12:39:04;97018.88;;;11.57
11926;BMP180;6022;48.768;18.608;2023-10-19T12:41:38;97018.06;;;11.57
11926;BMP180;6022;48.768;18.608;2023-10-19T12:44:06;97016.03;;;11.60
11926;BMP180;6022;48.768;18.608;2023-10-19T12:46:39;97017.25;;;11.56
11926;BMP180;6022;48.768;18.608;2023-10-19T12:49:08;97011.13;;;11.59
11926;BMP180;6022;48.768;18.608;2023-10-19T12:51:43;97016.97;;;11.59
11926;BMP180;6022;48.768;18.608;2023-10-19T12:54:11;97004.28;;;11.59
11926;BMP180;6022;48.768;18.608;2023-10-19T12:56:41;97016.69;;;11.62
11926;BMP180;6022;48.768;18.608;2023-10-19T12:59:09;97016.03;;;11.60
11926;BMP180;6022;48.768;18.608;2023-10-19T13:01:38;97013.22;;;11.63
11926;BMP180;6022;48.768;18.608;2023-10-19T13:04:07;97004.25;;;11.69
11926;BMP180;6022;48.768;18.608;2023-10-19T13:06:45;96996.22;;;11.73
11926;BMP180;6022;48.768;18.608;2023-10-19T13:09:14;96998.75;;;11.73
11926;BMP180;6022;48.768;18.608;2023-10-19T13:11:50;96997.84;;;11.74
11926;BMP180;6022;48.768;18.608;2023-10-19T13:14:20;97003.19;;;11.71
11926;BMP180;6022;48.768;18.608;2023-10-19T13:16:47;97001.59;;;11.70
11926;BMP180;6022;48.768;18.608;2023-10-19T13:19:21;96998.00;;;11.63
11926;BMP180;6022;48.768;18.608;2023-10-19T13:21:53;96991.03;;;11.65
11926;BMP180;6022;48.768;18.608;2023-10-19T13:24:22;96988.50;;;11.65
11926;BMP180;6022;48.768;18.608;2023-10-19T13:26:53;96982.22;;;11.60
11926;BMP180;6022;48.768;18.608;2023-10-19T13:29:21;96974.22;;;11.64
11926;BMP180;6022;48.768;18.608;2023-10-19T13:31:50;96972.84;;;11.69
11926;BMP180;6022;48.768;18.608;2023-10-19T13:34:30;96965.06;;;11.71
11926;BMP180;6022;48.768;18.608;2023-10-19T13:37:00;96961.22;;;11.67
11926;BMP180;6022;48.768;18.608;2023-10-19T13:39:29;96958.28;;;11.62
11926;BMP180;6022;48.768;18.608;2023-10-19T13:41:58;96945.44;;;11.64
11926;BMP180;6022;48.768;18.608;2023-10-19T13:44:26;96940.50;;;11.62
11926;BMP180;6022;48.768;18.608;2023-10-19T13:46:53;96935.06;;;11.57
11926;BMP180;6022;48.768;18.608;2023-10-19T13:49:21;96942.38;;;11.60
11926;BMP180;6022;48.768;18.608;2023-10-19T13:51:49;96926.13;;;11.53
11926;BMP180;6022;48.768;18.608;2023-10-19T13:54:17;96927.72;;;11.54
11926;BMP180;6022;48.768;18.608;2023-10-19T13:56:44;96927.72;;;11.54
11926;BMP180;6022;48.768;18.608;2023-10-19T13:59:13;96926.69;;;11.47
11926;BMP180;6022;48.768;18.608;2023-10-19T14:01:43;96923.63;;;11.44
11926;BMP180;6022;48.768;18.608;2023-10-19T14:04:10;96920.22;;;11.43
11926;BMP180;6022;48.768;18.608;2023-10-19T14:06:41;96921.19;;;11.52
11926;BMP180;6022;48.768;18.608;2023-10-19T14:09:10;96912.78;;;11.51
11926;BMP180;6022;48.768;18.608;2023-10-19T14:11:39;96921.91;;;11.71
11926;BMP180;6022;48.768;18.608;2023-10-19T14:14:08;96912.03;;;11.95
11926;BMP180;6022;48.768;18.608;2023-10-19T14:16:38;96910.91;;;11.80
11926;BMP180;6022;48.768;18.608;2023-10-19T14:19:06;96906.09;;;11.77
11926;BMP180;6022;48.768;18.608;2023-10-19T14:21:33;96910.72;;;11.64
11926;BMP180;6022;48.768;18.608;2023-10-19T14:24:05;96917.81;;;11.61
11926;BMP180;6022;48.768;18.608;2023-10-19T14:26:35;96916.72;;;11.63
11926;BMP180;6022;48.768;18.608;2023-10-19T14:29:03;96907.53;;;11.53
11926;BMP180;6022;48.768;18.608;2023-10-19T14:31:31;96909.66;;;11.57
11926;BMP180;6022;48.768;18.608;2023-10-19T14:33:59;96911.66;;;11.63
11926;BMP180;6022;48.768;18.608;2023-10-19T14:36:26;96912.03;;;11.68
11926;BMP180;6022;48.768;18.608;2023-10-19T14:38:54;96903.09;;;11.64
11926;BMP180;6022;48.768;18.608;2023-10-19T14:41:23;96899.66;;;11.56
11926;BMP180;6022;48.768;18.608;2023-10-19T14:43:51;96893.22;;;11.61
11926;BMP180;6022;48.768;18.608;2023-10-19T14:46:19;96889.50;;;11.56